Terminal Aerodrome Forecast
Issued by NWS

Home | Current Version | Previous Version | Graphics & Text | Print | Product List | Glossary On
Versions: 1 2 3 4 5 6 7 8 9 10 11 12 13 14
000
FTUS43 KFGF 280520
TAFBJI
TAF
KBJI 280520Z 2806/2906 15007KT P6SM VCTS BKN080CB
     FM280800 15008KT P6SM BKN090
      TEMPO 2808/2811 4SM -TSRA OVC030CB
     FM281100 15009KT P6SM -SHRA OVC030
     FM281500 15008KT P6SM VCSH OVC010
     FM281800 VRB06KT P6SM OVC010
     FM282300 30008KT P6SM BKN035=

USA.gov is the U.S. government's official web portal to all federal, state and local government web resources and services.